createdAt,value
2022-07-25T00:00:20.529Z,58.80
2022-07-25T00:02:47.284Z,58.80
2022-07-25T00:05:14.017Z,58.80
2022-07-25T00:07:40.830Z,58.90
2022-07-25T00:10:08.453Z,59.00
2022-07-25T00:12:35.237Z,59.00
2022-07-25T00:15:02.102Z,58.90
2022-07-25T00:17:28.814Z,59.00
2022-07-25T00:19:55.583Z,59.00
2022-07-25T00:22:22.427Z,59.10
2022-07-25T00:24:49.368Z,59.40
2022-07-25T00:27:16.190Z,59.40
2022-07-25T00:29:42.942Z,59.40
2022-07-25T00:32:09.829Z,59.50
2022-07-25T00:34:36.811Z,59.50
2022-07-25T00:37:03.595Z,59.50
2022-07-25T00:39:30.352Z,59.40
2022-07-25T00:41:57.385Z,59.60
2022-07-25T00:44:31.946Z,59.50
2022-07-25T00:46:59.442Z,59.50
2022-07-25T00:49:26.496Z,59.50
2022-07-25T00:51:54.860Z,59.60
2022-07-25T00:54:22.472Z,59.50
2022-07-25T00:56:49.774Z,59.50
2022-07-25T00:59:17.257Z,59.30
2022-07-25T01:01:45.727Z,59.20
2022-07-25T01:04:12.531Z,59.20
2022-07-25T01:06:39.283Z,59.20
2022-07-25T01:09:06.706Z,59.20
2022-07-25T01:11:33.900Z,59.20
2022-07-25T01:14:00.726Z,59.20
2022-07-25T01:16:27.557Z,59.20
2022-07-25T01:18:54.425Z,59.30
2022-07-25T01:21:22.821Z,59.20
2022-07-25T01:23:49.693Z,59.30
2022-07-25T01:26:16.674Z,59.30
2022-07-25T01:28:43.531Z,59.40
2022-07-25T01:31:13.360Z,59.30
2022-07-25T01:33:40.197Z,59.60
2022-07-25T01:36:07.530Z,59.70
2022-07-25T01:38:34.396Z,59.80
2022-07-25T01:41:01.187Z,59.90
2022-07-25T01:43:28.021Z,60.10
2022-07-25T01:45:54.973Z,60.40
2022-07-25T01:48:21.925Z,60.70
2022-07-25T01:50:48.700Z,60.90
2022-07-25T01:53:16.017Z,61.10
2022-07-25T01:55:45.443Z,61.40
2022-07-25T01:58:12.301Z,61.70
2022-07-25T02:00:41.028Z,61.50
2022-07-25T02:03:26.336Z,61.80
2022-07-25T02:05:53.285Z,62.00
2022-07-25T02:08:20.105Z,62.10
2022-07-25T02:10:47.179Z,62.50
2022-07-25T02:13:13.985Z,62.60
2022-07-25T02:15:40.718Z,62.60
2022-07-25T02:18:07.471Z,62.60
2022-07-25T02:20:34.418Z,62.80
2022-07-25T02:23:01.224Z,62.80
2022-07-25T02:25:28.005Z,62.90
2022-07-25T02:27:54.860Z,63.00
2022-07-25T02:30:22.605Z,63.10
2022-07-25T02:32:49.871Z,63.30
2022-07-25T02:35:16.667Z,63.50
2022-07-25T02:37:43.541Z,63.60
2022-07-25T02:40:11.027Z,63.70
2022-07-25T02:42:38.125Z,63.70
2022-07-25T02:45:05.562Z,63.90
2022-07-25T02:47:32.438Z,64.10
2022-07-25T02:49:59.253Z,64.40
2022-07-25T02:52:26.057Z,64.50
2022-07-25T02:54:52.911Z,64.70
2022-07-25T02:57:19.814Z,64.60
2022-07-25T02:59:49.748Z,64.70
2022-07-25T03:02:16.625Z,64.80
2022-07-25T03:04:43.653Z,64.80
2022-07-25T03:07:10.432Z,64.90
2022-07-25T03:09:37.648Z,65.00
2022-07-25T03:12:04.859Z,65.10
2022-07-25T03:14:31.644Z,65.10
2022-07-25T03:16:58.672Z,65.40
2022-07-25T03:19:25.926Z,65.40
2022-07-25T03:21:52.730Z,65.30
2022-07-25T03:24:19.873Z,65.20
2022-07-25T03:26:46.902Z,65.10
2022-07-25T03:29:13.828Z,65.30
2022-07-25T03:31:40.664Z,65.40
2022-07-25T03:34:07.924Z,65.10
2022-07-25T03:36:35.097Z,65.00
2022-07-25T03:39:05.555Z,64.90
2022-07-25T03:41:32.785Z,64.80
2022-07-25T03:43:59.684Z,64.70
2022-07-25T03:46:26.659Z,64.70
2022-07-25T03:48:53.513Z,64.60
2022-07-25T03:51:20.436Z,64.70
2022-07-25T03:54:02.723Z,64.70
2022-07-25T03:56:30.340Z,64.70
2022-07-25T03:58:57.266Z,64.60
2022-07-25T04:01:24.164Z,64.50
2022-07-25T04:03:53.745Z,64.40
2022-07-25T04:06:20.929Z,64.40
2022-07-25T04:08:48.136Z,64.30
2022-07-25T04:11:15.176Z,64.20
2022-07-25T04:13:42.338Z,64.20
2022-07-25T04:16:14.580Z,64.30
2022-07-25T04:18:45.303Z,64.10
2022-07-25T04:21:12.161Z,63.80
2022-07-25T04:23:38.852Z,63.70
2022-07-25T04:26:05.961Z,63.50
2022-07-25T04:28:32.918Z,63.20
2022-07-25T04:30:59.791Z,63.20
2022-07-25T04:33:27.215Z,63.20
2022-07-25T04:35:54.472Z,63.10
2022-07-25T04:38:21.278Z,63.10
2022-07-25T04:40:48.553Z,63.00
2022-07-25T04:43:15.445Z,63.00
2022-07-25T04:45:42.390Z,63.10
2022-07-25T04:48:09.464Z,63.10
2022-07-25T04:50:36.190Z,63.20
2022-07-25T04:53:02.984Z,63.30
2022-07-25T04:55:30.027Z,63.40
2022-07-25T04:57:56.873Z,63.40
2022-07-25T05:00:23.883Z,63.50
2022-07-25T05:02:51.617Z,63.80
2022-07-25T05:05:21.391Z,63.90
2022-07-25T05:07:50.111Z,64.00
2022-07-25T05:10:17.714Z,64.20
2022-07-25T05:12:44.508Z,64.40
2022-07-25T05:15:12.266Z,64.40
2022-07-25T05:17:39.064Z,64.40
2022-07-25T05:20:06.663Z,64.30
2022-07-25T05:22:33.419Z,64.30
2022-07-25T05:25:02.336Z,64.20
2022-07-25T05:27:29.146Z,64.20
2022-07-25T05:29:55.994Z,64.10
2022-07-25T05:32:22.887Z,64.10
2022-07-25T05:34:49.664Z,63.80
2022-07-25T05:37:16.732Z,63.60
2022-07-25T05:39:44.173Z,63.40
2022-07-25T05:42:11.197Z,63.10
2022-07-25T05:44:37.993Z,62.80
2022-07-25T05:47:08.719Z,62.60
2022-07-25T05:49:35.510Z,62.50
2022-07-25T05:52:02.239Z,62.30
2022-07-25T05:54:29.068Z,62.20
2022-07-25T05:56:55.932Z,62.10
2022-07-25T05:59:25.919Z,62.10
2022-07-25T06:01:52.853Z,61.90
2022-07-25T06:04:22.975Z,61.80
2022-07-25T06:06:53.825Z,61.70
2022-07-25T06:09:21.707Z,61.40
2022-07-25T06:11:59.710Z,61.30
2022-07-25T06:14:28.575Z,61.00
2022-07-25T06:16:55.777Z,60.50
2022-07-25T06:19:22.558Z,60.10
2022-07-25T06:21:49.370Z,59.80
2022-07-25T06:24:16.192Z,59.70
2022-07-25T06:26:43.242Z,59.40
2022-07-25T06:29:10.381Z,59.40
2022-07-25T06:31:37.265Z,58.70
2022-07-25T06:34:04.418Z,58.70
2022-07-25T06:36:33.861Z,58.60
2022-07-25T06:39:01.171Z,57.70
2022-07-25T06:41:27.952Z,57.50
2022-07-25T06:43:54.852Z,56.50
2022-07-25T06:46:21.681Z,56.20
2022-07-25T06:48:48.612Z,56.20
2022-07-25T06:51:15.652Z,56.00
2022-07-25T06:53:42.507Z,56.20
2022-07-25T06:56:10.567Z,56.50
2022-07-25T06:58:40.073Z,56.80
2022-07-25T07:01:07.399Z,57.20
2022-07-25T07:03:38.351Z,57.60
2022-07-25T07:06:06.422Z,57.90
2022-07-25T07:08:33.855Z,57.80
2022-07-25T07:11:01.616Z,57.70
2022-07-25T07:13:28.597Z,57.60
2022-07-25T07:15:55.883Z,57.80
2022-07-25T07:18:23.557Z,57.90
2022-07-25T07:20:51.839Z,58.10
2022-07-25T07:23:19.075Z,58.30
2022-07-25T07:25:47.231Z,58.40
2022-07-25T07:28:15.118Z,58.50
2022-07-25T07:33:29.215Z,58.70
2022-07-25T07:35:57.037Z,59.00
2022-07-25T07:38:25.078Z,59.00
2022-07-25T07:40:52.618Z,59.10
2022-07-25T07:43:20.034Z,59.40
2022-07-25T07:45:46.899Z,59.50
2022-07-25T07:48:13.908Z,59.70
2022-07-25T07:50:41.071Z,59.50
2022-07-25T07:53:07.986Z,59.40
2022-07-25T07:55:44.370Z,59.40
2022-07-25T07:58:15.708Z,59.50
2022-07-25T08:00:44.271Z,59.70
2022-07-25T08:03:11.433Z,59.90
2022-07-25T08:05:39.567Z,60.10
2022-07-25T08:08:08.838Z,60.20
2022-07-25T08:10:38.662Z,60.20
2022-07-25T08:13:17.297Z,60.40
2022-07-25T08:15:45.950Z,60.70
2022-07-25T08:18:17.698Z,61.10
2022-07-25T08:20:46.132Z,61.30
2022-07-25T08:23:13.536Z,61.10
2022-07-25T08:25:40.948Z,60.70
2022-07-25T08:28:08.025Z,60.90
2022-07-25T08:30:36.325Z,60.90
2022-07-25T08:33:06.284Z,59.70
2022-07-25T08:35:34.193Z,59.50
2022-07-25T08:38:03.022Z,58.70
2022-07-25T08:40:31.270Z,58.00
2022-07-25T08:42:59.050Z,57.70
2022-07-25T08:45:27.995Z,57.60
2022-07-25T08:47:56.094Z,57.90
2022-07-25T08:50:28.165Z,57.40
2022-07-25T08:53:10.400Z,57.60
2022-07-25T08:55:45.107Z,57.30
2022-07-25T08:58:14.163Z,56.40
2022-07-25T09:00:42.325Z,56.20
2022-07-25T09:03:09.711Z,56.10
2022-07-25T09:05:37.266Z,56.10
2022-07-25T09:08:16.365Z,56.00
2022-07-25T09:10:51.436Z,56.80
2022-07-25T09:13:20.355Z,57.20
2022-07-25T09:15:50.158Z,57.50
2022-07-25T09:18:22.014Z,58.30
2022-07-25T09:21:13.588Z,58.70
2022-07-25T09:23:40.351Z,58.20
2022-07-25T09:26:07.124Z,58.10
2022-07-25T09:28:43.217Z,59.00
2022-07-25T09:31:10.328Z,58.00
2022-07-25T09:33:48.835Z,56.60
2022-07-25T09:36:16.490Z,56.10
2022-07-25T09:38:59.332Z,56.30
2022-07-25T09:41:41.517Z,54.40
2022-07-25T09:44:19.200Z,53.20
2022-07-25T09:46:46.253Z,51.50
2022-07-25T09:49:14.739Z,50.10
2022-07-25T09:51:45.203Z,49.70
2022-07-25T09:54:11.990Z,49.90
2022-07-25T09:56:38.835Z,50.50
2022-07-25T09:59:06.173Z,49.80
2022-07-25T10:01:51.146Z,50.50
2022-07-25T10:04:22.275Z,51.00
2022-07-25T10:07:05.731Z,51.40
2022-07-25T10:09:33.308Z,51.70
2022-07-25T10:12:08.898Z,51.40
2022-07-25T10:14:37.042Z,51.00
2022-07-25T10:17:04.463Z,50.90
2022-07-25T10:19:52.915Z,50.50
2022-07-25T10:22:46.290Z,49.80
2022-07-25T10:25:18.014Z,48.70
2022-07-25T10:27:50.853Z,48.80
2022-07-25T10:30:23.261Z,49.30
2022-07-25T10:32:56.239Z,50.10
2022-07-25T10:35:23.150Z,50.30
2022-07-25T10:37:52.268Z,50.00
2022-07-25T10:40:34.097Z,49.90
2022-07-25T10:43:08.739Z,49.10
2022-07-25T10:45:58.023Z,49.80
2022-07-25T10:48:25.858Z,49.90
2022-07-25T10:51:05.897Z,49.40
2022-07-25T10:53:48.948Z,48.90
2022-07-25T10:56:24.552Z,48.60
2022-07-25T10:58:53.222Z,48.90
2022-07-25T11:01:30.061Z,49.30
2022-07-25T11:04:00.745Z,50.30
2022-07-25T11:06:35.601Z,51.00
2022-07-25T11:09:04.926Z,51.80
2022-07-25T11:11:37.432Z,52.20
2022-07-25T11:14:05.630Z,52.80
2022-07-25T11:16:32.564Z,53.20
2022-07-25T11:18:59.427Z,53.50
2022-07-25T11:21:26.198Z,53.50
2022-07-25T11:23:53.612Z,53.60
2022-07-25T11:26:20.657Z,53.80
2022-07-25T11:28:49.329Z,53.60
2022-07-25T11:31:18.753Z,53.40
2022-07-25T11:33:48.619Z,53.50
2022-07-25T11:36:16.013Z,54.10
2022-07-25T11:38:47.079Z,54.10
2022-07-25T11:41:13.828Z,54.00
2022-07-25T11:43:48.633Z,54.20
2022-07-25T11:46:15.693Z,54.30
2022-07-25T11:48:42.949Z,54.00
2022-07-25T11:51:18.644Z,54.20
2022-07-25T11:53:50.755Z,54.50
2022-07-25T11:59:08.422Z,54.50
2022-07-25T12:01:45.276Z,54.90
2022-07-25T12:04:14.528Z,55.00
2022-07-25T12:06:51.046Z,55.10
2022-07-25T12:09:20.441Z,55.50
2022-07-25T12:11:48.509Z,53.80
2022-07-25T12:14:16.491Z,52.70
2022-07-25T12:16:43.272Z,51.00
2022-07-25T12:19:19.006Z,49.60
2022-07-25T12:21:45.935Z,49.70
2022-07-25T12:24:12.994Z,49.50
2022-07-25T12:26:39.837Z,46.80
2022-07-25T12:29:06.941Z,44.70
2022-07-25T12:31:34.032Z,44.10
2022-07-25T12:34:04.188Z,43.40
2022-07-25T12:36:31.131Z,43.80
2022-07-25T12:38:57.933Z,44.50
2022-07-25T12:41:25.305Z,44.80
2022-07-25T12:43:52.071Z,44.10
2022-07-25T12:46:18.839Z,43.30
2022-07-25T12:48:46.870Z,43.20
2022-07-25T12:51:13.834Z,43.60
2022-07-25T12:53:42.633Z,44.30
2022-07-25T12:56:09.969Z,44.80
2022-07-25T12:58:37.407Z,44.90
2022-07-25T13:01:05.866Z,44.00
2022-07-25T13:03:32.975Z,44.00
2022-07-25T13:05:59.809Z,42.90
2022-07-25T13:08:27.443Z,43.50
2022-07-25T13:10:54.342Z,44.10
2022-07-25T13:13:21.099Z,44.00
2022-07-25T13:15:47.835Z,42.60
2022-07-25T13:18:14.779Z,41.90
2022-07-25T13:20:41.731Z,42.00
2022-07-25T13:23:08.525Z,41.00
2022-07-25T13:25:36.104Z,41.00
2022-07-25T13:28:04.205Z,41.30
2022-07-25T13:30:37.996Z,41.70
2022-07-25T13:33:05.035Z,42.40
2022-07-25T13:35:38.095Z,43.30
2022-07-25T13:38:08.610Z,42.30
2022-07-25T13:40:37.356Z,41.70
2022-07-25T13:43:04.203Z,40.90
2022-07-25T13:45:31.304Z,41.10
2022-07-25T13:48:26.854Z,41.40
2022-07-25T13:50:44.843Z,40.60
2022-07-25T13:53:11.778Z,40.90
2022-07-25T13:55:39.092Z,40.90
2022-07-25T13:58:06.326Z,41.50
2022-07-25T14:00:33.167Z,42.00
2022-07-25T14:03:00.151Z,42.20
2022-07-25T14:05:27.053Z,42.60
2022-07-25T14:07:53.830Z,43.00
2022-07-25T14:10:20.644Z,42.60
2022-07-25T14:12:47.436Z,41.90
2022-07-25T14:15:14.559Z,41.10
2022-07-25T14:17:41.763Z,40.50
2022-07-25T14:20:11.110Z,39.60
2022-07-25T14:22:39.488Z,39.40
2022-07-25T14:25:06.933Z,39.70
2022-07-25T14:27:34.089Z,39.80
2022-07-25T14:30:01.020Z,39.70
2022-07-25T14:32:28.004Z,38.40
2022-07-25T14:34:54.831Z,37.10
2022-07-25T14:37:23.384Z,37.00
2022-07-25T14:39:52.142Z,37.10
2022-07-25T14:42:24.673Z,37.20
2022-07-25T14:44:52.916Z,37.30
2022-07-25T14:47:20.458Z,36.90
2022-07-25T14:49:47.619Z,36.70
2022-07-25T14:52:15.605Z,36.90
2022-07-25T14:54:42.812Z,37.10
2022-07-25T14:57:10.076Z,36.70
2022-07-25T14:59:37.159Z,37.30
2022-07-25T15:02:04.034Z,37.60
2022-07-25T15:04:30.817Z,37.30
2022-07-25T15:06:57.813Z,37.20
2022-07-25T15:09:24.671Z,37.50
2022-07-25T15:11:51.421Z,38.10
2022-07-25T15:14:19.196Z,38.90
2022-07-25T15:16:46.177Z,38.90
2022-07-25T15:19:16.436Z,39.10
2022-07-25T15:21:45.036Z,39.00
2022-07-25T15:24:11.868Z,39.30
2022-07-25T15:26:38.699Z,39.10
2022-07-25T15:29:10.263Z,39.60
2022-07-25T15:31:37.558Z,40.10
2022-07-25T15:34:04.544Z,40.50
2022-07-25T15:36:31.456Z,40.90
2022-07-25T15:38:58.187Z,41.30
2022-07-25T15:41:24.976Z,42.00
2022-07-25T15:43:51.782Z,42.20
2022-07-25T15:46:18.965Z,42.60
2022-07-25T15:48:45.857Z,42.50
2022-07-25T15:51:16.572Z,42.40
2022-07-25T15:53:43.537Z,42.40
2022-07-25T15:56:10.849Z,42.50
2022-07-25T15:58:37.661Z,42.20
2022-07-25T16:01:04.564Z,42.40
2022-07-25T16:03:31.418Z,42.50
2022-07-25T16:05:58.953Z,42.70
2022-07-25T16:08:25.969Z,42.50
2022-07-25T16:10:52.919Z,42.40
2022-07-25T16:13:19.717Z,42.50
2022-07-25T16:15:46.834Z,42.60
2022-07-25T16:18:13.654Z,42.90
2022-07-25T16:20:40.506Z,43.30
2022-07-25T16:23:10.694Z,43.50
2022-07-25T16:25:37.757Z,43.90
2022-07-25T16:28:06.296Z,44.50
2022-07-25T16:30:33.225Z,44.50
2022-07-25T16:33:00.178Z,44.50
2022-07-25T16:35:26.914Z,44.40
2022-07-25T16:37:53.868Z,44.10
2022-07-25T16:40:21.184Z,44.00
2022-07-25T16:42:49.581Z,43.90
2022-07-25T16:45:16.306Z,44.50
2022-07-25T16:47:44.365Z,44.50
2022-07-25T16:50:11.253Z,44.80
2022-07-25T16:52:38.110Z,45.20
2022-07-25T16:55:05.450Z,45.00
2022-07-25T16:57:32.547Z,44.60
2022-07-25T17:00:00.831Z,45.00
2022-07-25T17:02:29.657Z,45.10
2022-07-25T17:04:57.410Z,45.10
2022-07-25T17:07:24.536Z,45.10
2022-07-25T17:09:52.053Z,45.20
2022-07-25T17:12:19.798Z,46.30
2022-07-25T17:14:46.574Z,47.30
2022-07-25T17:17:13.762Z,48.30
2022-07-25T17:19:40.670Z,49.30
2022-07-25T17:22:10.925Z,50.00
2022-07-25T17:24:38.552Z,50.50
2022-07-25T17:27:06.888Z,51.00
2022-07-25T17:29:34.301Z,51.30
2022-07-25T17:32:01.144Z,51.40
2022-07-25T17:34:28.337Z,51.70
2022-07-25T17:36:55.282Z,51.50
2022-07-25T17:39:22.096Z,51.10
2022-07-25T17:41:49.213Z,50.60
2022-07-25T17:44:16.317Z,50.60
2022-07-25T17:46:43.555Z,50.80
2022-07-25T17:49:10.703Z,51.20
2022-07-25T17:51:37.577Z,51.40
2022-07-25T17:54:04.683Z,51.70
2022-07-25T17:56:32.429Z,51.80
2022-07-25T17:58:59.414Z,52.10
2022-07-25T18:01:26.257Z,52.20
2022-07-25T18:03:53.124Z,52.30
2022-07-25T18:06:20.082Z,52.20
2022-07-25T18:08:46.845Z,52.30
2022-07-25T18:11:13.904Z,52.30
2022-07-25T18:13:40.742Z,52.90
2022-07-25T18:16:09.239Z,52.80
2022-07-25T18:18:36.052Z,52.90
2022-07-25T18:21:02.900Z,53.00
2022-07-25T18:23:30.640Z,53.20
2022-07-25T18:25:57.702Z,53.40
2022-07-25T18:28:25.012Z,53.70
2022-07-25T18:30:52.168Z,54.10
2022-07-25T18:33:20.121Z,54.30
2022-07-25T18:35:46.921Z,54.40
2022-07-25T18:38:13.964Z,54.50
2022-07-25T18:40:40.923Z,54.90
2022-07-25T18:43:08.961Z,55.10
2022-07-25T18:45:37.369Z,55.50
2022-07-25T18:48:05.811Z,55.80
2022-07-25T18:50:32.757Z,56.10
2022-07-25T18:52:59.639Z,56.30
2022-07-25T18:55:26.584Z,56.50
2022-07-25T18:57:53.341Z,56.70
2022-07-25T19:00:20.333Z,56.90
2022-07-25T19:02:47.176Z,57.40
2022-07-25T19:05:14.320Z,57.60
2022-07-25T19:07:41.145Z,57.80
2022-07-25T19:10:08.763Z,58.10
2022-07-25T19:12:35.744Z,58.40
2022-07-25T19:15:03.166Z,58.60
2022-07-25T19:17:32.030Z,58.70
2022-07-25T19:19:59.841Z,58.80
2022-07-25T19:22:26.764Z,59.10
2022-07-25T19:24:53.586Z,59.10
2022-07-25T19:27:20.552Z,59.30
2022-07-25T19:29:47.455Z,59.30
2022-07-25T19:32:16.123Z,59.40
2022-07-25T19:34:45.351Z,59.60
2022-07-25T19:37:12.143Z,59.90
2022-07-25T19:39:38.970Z,59.90
2022-07-25T19:42:09.829Z,60.20
2022-07-25T19:44:37.341Z,60.20
2022-07-25T19:47:07.204Z,60.60
2022-07-25T19:49:36.750Z,60.90
2022-07-25T19:52:03.789Z,61.00
2022-07-25T19:54:30.736Z,61.80
2022-07-25T19:56:57.938Z,62.10
2022-07-25T19:59:24.879Z,62.40
2022-07-25T20:01:52.437Z,62.50
2022-07-25T20:04:19.266Z,62.80
2022-07-25T20:06:46.147Z,62.80
2022-07-25T20:09:13.887Z,62.80
2022-07-25T20:11:44.298Z,62.90
2022-07-25T20:14:11.543Z,62.90
2022-07-25T20:16:39.400Z,62.90
2022-07-25T20:19:08.771Z,63.20
2022-07-25T20:21:40.393Z,63.10
2022-07-25T20:24:07.889Z,63.10
2022-07-25T20:26:34.753Z,63.10
2022-07-25T20:29:02.142Z,63.40
2022-07-25T20:31:28.963Z,63.50
2022-07-25T20:33:55.949Z,63.60
2022-07-25T20:36:22.833Z,63.90
2022-07-25T20:38:49.919Z,64.10
2022-07-25T20:41:16.830Z,64.60
2022-07-25T20:43:45.871Z,64.90
2022-07-25T20:46:12.962Z,65.20
2022-07-25T20:48:40.013Z,65.80
2022-07-25T20:51:06.991Z,66.10
2022-07-25T20:53:34.601Z,66.00
2022-07-25T20:56:02.515Z,66.30
2022-07-25T20:58:29.406Z,66.50
2022-07-25T21:00:56.405Z,66.80
2022-07-25T21:03:23.589Z,66.80
2022-07-25T21:05:50.526Z,66.90
2022-07-25T21:08:17.772Z,67.20
2022-07-25T21:10:44.678Z,67.30
2022-07-25T21:13:11.523Z,67.70
2022-07-25T21:15:38.787Z,68.10
2022-07-25T21:18:05.751Z,68.00
2022-07-25T21:20:32.521Z,68.30
2022-07-25T21:22:59.331Z,68.60
2022-07-25T21:25:26.560Z,68.70
2022-07-25T21:27:53.345Z,68.80
2022-07-25T21:30:20.136Z,68.80
2022-07-25T21:32:47.015Z,69.20
2022-07-25T21:35:13.881Z,69.60
2022-07-25T21:37:40.881Z,69.80
2022-07-25T21:40:08.489Z,70.00
2022-07-25T21:42:36.149Z,70.30
2022-07-25T21:45:03.302Z,70.20
2022-07-25T21:47:30.075Z,70.10
2022-07-25T21:50:24.280Z,70.00
2022-07-25T21:52:52.074Z,70.30
2022-07-25T21:55:19.702Z,70.40
2022-07-25T21:57:48.053Z,70.70
2022-07-25T22:00:15.363Z,70.70
2022-07-25T22:02:46.790Z,70.90
2022-07-25T22:05:15.208Z,71.00
2022-07-25T22:07:43.827Z,71.10
2022-07-25T22:10:12.223Z,71.00
2022-07-25T22:12:40.304Z,71.00
2022-07-25T22:15:11.992Z,71.30
2022-07-25T22:17:48.481Z,70.90
2022-07-25T22:20:17.662Z,71.20
2022-07-25T22:22:45.021Z,71.30
2022-07-25T22:25:11.851Z,71.10
2022-07-25T22:27:38.597Z,71.00
2022-07-25T22:30:06.194Z,71.20
2022-07-25T22:32:32.999Z,71.20
2022-07-25T22:34:59.826Z,71.30
2022-07-25T22:37:26.739Z,71.50
2022-07-25T22:40:01.479Z,71.40
2022-07-25T22:42:28.365Z,71.60
2022-07-25T22:44:55.183Z,71.70
2022-07-25T22:47:21.905Z,71.70
2022-07-25T22:49:48.631Z,71.50
2022-07-25T22:52:15.590Z,71.80
2022-07-25T22:54:42.606Z,71.70
2022-07-25T22:57:09.416Z,71.80
2022-07-25T22:59:36.277Z,71.70
2022-07-25T23:02:03.242Z,71.60
2022-07-25T23:04:30.121Z,71.80
2022-07-25T23:06:56.990Z,71.90
2022-07-25T23:09:23.905Z,72.20
2022-07-25T23:11:50.836Z,72.10
2022-07-25T23:14:17.793Z,72.10
2022-07-25T23:16:44.711Z,72.20
2022-07-25T23:19:11.600Z,72.20
2022-07-25T23:21:39.033Z,72.30
2022-07-25T23:24:06.285Z,72.30
2022-07-25T23:26:33.195Z,72.40
2022-07-25T23:29:00.062Z,72.30
2022-07-25T23:31:26.898Z,72.30
2022-07-25T23:33:53.723Z,72.20
2022-07-25T23:36:20.486Z,72.20
2022-07-25T23:38:47.394Z,72.10
2022-07-25T23:41:14.196Z,72.50
2022-07-25T23:43:59.206Z,72.40
2022-07-25T23:46:29.513Z,72.20
2022-07-25T23:48:58.894Z,72.40
2022-07-25T23:51:26.488Z,72.50
2022-07-25T23:53:53.246Z,72.60
2022-07-25T23:56:21.236Z,72.50
2022-07-25T23:58:49.965Z,72.70
